Time;durP1;ratioP1;P1;durP2;ratioP2;P2;SDS_P1;SDS_P2;PMS_P1;PMS_P2;Temp;Humidity;BMP_temperature;BMP_pressure;BME280_temperature;BME280_humidity;BME280_pressure;Samples;Min_cycle;Max_cycle;Signal;HPM_P1;HPM_P2
2023/03/11 00:00:55;;;;;;;2.90;1.50;;;7.00;99.90;;;;;;5038201;28;20185;-72
2023/03/11 00:03:22;;;;;;;3.67;2.10;;;7.00;99.90;;;;;;5035643;28;20203;-72
2023/03/11 00:05:50;;;;;;;4.47;2.30;;;7.00;99.90;;;;;;5035680;28;20648;-72
2023/03/11 00:08:18;;;;;;;5.00;2.17;;;7.00;99.90;;;;;;5035567;28;20442;-72
2023/03/11 00:10:46;;;;;;;4.77;1.80;;;7.00;99.90;;;;;;5052621;28;20419;-72
2023/03/11 00:13:14;;;;;;;4.03;1.80;;;7.00;99.90;;;;;;5018608;28;20458;-72
2023/03/11 00:15:42;;;;;;;6.72;1.90;;;7.00;99.90;;;;;;5018724;28;20837;-72
2023/03/11 00:18:12;;;;;;;4.30;1.70;;;7.00;99.90;;;;;;5036040;28;20303;-72
2023/03/11 00:20:45;;;;;;;4.40;1.50;;;7.00;99.90;;;;;;5035592;28;20178;-72
2023/03/11 00:23:12;;;;;;;4.05;1.40;;;7.00;99.90;;;;;;5037744;28;20178;-72
2023/03/11 00:25:44;;;;;;;4.63;1.63;;;6.90;99.90;;;;;;5012559;28;20230;-72
2023/03/11 00:28:11;;;;;;;2.95;1.40;;;6.90;99.90;;;;;;5019261;28;20217;-72
2023/03/11 00:30:40;;;;;;;4.18;2.00;;;6.90;99.90;;;;;;4996288;28;20206;-72
2023/03/11 00:33:07;;;;;;;7.03;2.05;;;6.90;99.90;;;;;;5019233;28;20226;-72
2023/03/11 00:35:36;;;;;;;7.07;2.00;;;6.90;99.90;;;;;;5035802;28;20209;-72
2023/03/11 00:38:06;;;;;;;3.70;1.80;;;6.90;99.90;;;;;;5002986;28;20205;-72
2023/03/11 00:40:34;;;;;;;3.10;1.80;;;6.90;99.90;;;;;;5035625;28;20789;-72
2023/03/11 00:43:03;;;;;;;4.55;1.75;;;6.90;99.90;;;;;;5027807;28;20429;-72
2023/03/11 00:45:29;;;;;;;3.97;1.60;;;6.90;99.90;;;;;;5014092;28;20208;-72
2023/03/11 00:47:57;;;;;;;3.13;1.42;;;6.90;99.90;;;;;;5035342;28;20185;-72
2023/03/11 00:50:27;;;;;;;4.13;1.80;;;6.90;99.90;;;;;;5025592;28;20256;-72
2023/03/11 00:52:56;;;;;;;2.30;1.63;;;6.90;99.90;;;;;;5035293;28;20199;-71
2023/03/11 00:55:25;;;;;;;3.25;1.65;;;6.90;99.90;;;;;;5002538;28;20189;-72
2023/03/11 00:58:00;;;;;;;4.20;2.00;;;6.90;99.90;;;;;;5034803;28;20220;-72
2023/03/11 01:00:32;;;;;;;4.50;1.63;;;6.90;99.90;;;;;;5034772;28;20167;-72
2023/03/11 01:02:59;;;;;;;4.78;1.90;;;6.90;99.90;;;;;;5035265;28;21014;-71
2023/03/11 01:05:30;;;;;;;3.70;2.15;;;6.90;99.90;;;;;;5018786;28;20169;-72
2023/03/11 01:07:57;;;;;;;6.20;2.08;;;6.90;99.90;;;;;;5034901;28;20220;-72
2023/03/11 01:10:26;;;;;;;1.60;1.50;;;6.90;99.90;;;;;;5002220;28;20197;-72
2023/03/11 01:12:55;;;;;;;2.17;1.50;;;6.90;99.90;;;;;;5035581;28;20273;-72
2023/03/11 01:15:30;;;;;;;3.45;1.60;;;6.90;99.90;;;;;;5034952;28;20601;-72
2023/03/11 01:17:58;;;;;;;3.95;1.70;;;6.90;99.90;;;;;;5035191;28;20594;-72
2023/03/11 01:20:26;;;;;;;4.97;1.70;;;6.90;99.90;;;;;;5018152;28;20276;-72
2023/03/11 01:22:53;;;;;;;3.58;1.55;;;6.90;99.90;;;;;;5033880;28;20280;-72
2023/03/11 01:25:22;;;;;;;3.63;1.60;;;6.90;99.90;;;;;;5005914;28;20178;-72
2023/03/11 01:27:50;;;;;;;5.65;2.13;;;6.90;99.90;;;;;;5015495;28;20575;-72
2023/03/11 01:30:21;;;;;;;6.15;2.00;;;6.90;99.90;;;;;;5032466;28;20635;-72
2023/03/11 01:32:51;;;;;;;4.10;1.50;;;6.90;99.90;;;;;;4999118;28;20189;-72
2023/03/11 01:35:19;;;;;;;3.15;1.50;;;6.90;99.90;;;;;;5025092;28;20696;-72
2023/03/11 01:37:47;;;;;;;7.65;1.67;;;6.90;99.90;;;;;;4998553;28;20632;-72
2023/03/11 01:40:29;;;;;;;2.33;1.60;;;6.90;99.90;;;;;;5013916;28;20177;-72
2023/03/11 01:42:57;;;;;;;3.28;1.60;;;6.90;99.90;;;;;;5034672;28;20189;-72
2023/03/11 01:46:03;;;;;;;2.75;1.20;;;6.90;99.90;;;;;;5031412;28;20181;-72
2023/03/11 01:48:30;;;;;;;2.63;1.90;;;6.90;99.90;;;;;;5003513;28;20578;-72
2023/03/11 01:50:57;;;;;;;3.67;1.35;;;6.90;99.90;;;;;;5034548;28;20163;-72
2023/03/11 01:53:26;;;;;;;2.40;1.30;;;6.90;99.90;;;;;;5034691;28;20165;-72
2023/03/11 01:55:52;;;;;;;3.00;1.40;;;6.80;99.90;;;;;;5017522;28;20583;-71
2023/03/11 01:58:29;;;;;;;7.07;2.25;;;6.80;99.90;;;;;;5017779;28;20932;-72
2023/03/11 02:00:59;;;;;;;5.40;1.73;;;6.80;99.90;;;;;;5015565;28;20665;-72
2023/03/11 02:03:35;;;;;;;2.85;1.30;;;6.80;99.90;;;;;;5017987;28;20434;-72
2023/03/11 02:06:06;;;;;;;4.60;1.70;;;6.80;99.90;;;;;;5034474;28;20231;-72
2023/03/11 02:08:35;;;;;;;3.17;1.45;;;6.80;99.90;;;;;;5021181;28;20298;-72
2023/03/11 02:11:06;;;;;;;5.93;1.60;;;6.80;99.90;;;;;;5017626;28;20186;-72
2023/03/11 02:13:36;;;;;;;5.90;1.40;;;6.80;99.90;;;;;;5030851;28;20194;-72
2023/03/11 02:16:05;;;;;;;3.80;1.50;;;6.80;99.90;;;;;;5034087;28;20656;-72
2023/03/11 02:18:31;;;;;;;3.33;1.50;;;6.80;99.90;;;;;;5001460;28;20711;-72
2023/03/11 02:21:28;;;;;;;3.95;1.70;;;6.80;99.90;;;;;;5001141;28;20423;-72
2023/03/11 02:24:20;;;;;;;3.80;1.58;;;6.80;99.90;;;;;;5034121;28;20256;-72
2023/03/11 02:26:55;;;;;;;3.33;1.40;;;6.80;99.90;;;;;;5012950;28;20224;-72
2023/03/11 02:29:23;;;;;;;4.53;1.20;;;6.80;99.90;;;;;;5033726;28;20570;-72
2023/03/11 02:31:55;;;;;;;4.67;1.60;;;6.80;99.90;;;;;;5032878;28;20201;-72
2023/03/11 02:34:28;;;;;;;3.55;1.52;;;6.80;99.90;;;;;;5021357;28;20766;-72
2023/03/11 02:36:59;;;;;;;2.10;1.30;;;6.70;99.90;;;;;;5029820;28;20194;-72
2023/03/11 02:39:48;;;;;;;5.50;1.40;;;6.70;99.90;;;;;;5036277;28;20527;-72
2023/03/11 02:42:30;;;;;;;4.87;1.60;;;6.70;99.90;;;;;;4985204;28;20491;-72
2023/03/11 02:45:06;;;;;;;4.20;1.83;;;6.70;99.90;;;;;;5010888;28;20440;-71
2023/03/11 02:47:35;;;;;;;7.83;1.47;;;6.70;99.90;;;;;;5037605;28;20173;-71
2023/03/11 02:50:04;;;;;;;2.58;1.35;;;6.70;99.90;;;;;;5036915;28;20448;-71
2023/03/11 02:52:34;;;;;;;5.45;1.48;;;6.70;99.90;;;;;;5020355;28;20661;-71
2023/03/11 02:55:01;;;;;;;3.15;1.73;;;6.70;99.90;;;;;;5033551;28;20191;-71
2023/03/11 02:57:27;;;;;;;4.25;1.60;;;6.70;99.90;;;;;;5014419;28;20193;-72
2023/03/11 02:59:55;;;;;;;3.40;1.50;;;6.70;99.90;;;;;;5025644;28;20550;-72
2023/03/11 03:02:21;;;;;;;4.55;2.17;;;6.70;99.90;;;;;;5049153;28;21248;-72
2023/03/11 03:04:48;;;;;;;5.07;1.80;;;6.70;99.90;;;;;;5026310;28;20815;-72
2023/03/11 03:07:17;;;;;;;2.72;1.75;;;6.60;99.90;;;;;;5033583;28;20290;-71
2023/03/11 03:09:46;;;;;;;5.28;1.92;;;6.70;99.90;;;;;;5021013;28;20203;-72
2023/03/11 03:12:16;;;;;;;6.43;2.10;;;6.60;99.90;;;;;;5036753;28;20602;-72
2023/03/11 03:14:47;;;;;;;4.60;1.73;;;6.60;99.90;;;;;;5020393;28;20585;-71
2023/03/11 03:17:15;;;;;;;4.20;1.73;;;6.60;99.90;;;;;;5003737;28;20222;-72
2023/03/11 03:19:48;;;;;;;2.60;1.70;;;6.60;99.90;;;;;;5020803;28;20447;-72
2023/03/11 03:22:17;;;;;;;6.55;1.90;;;6.60;99.90;;;;;;5036028;28;20185;-72
2023/03/11 03:24:44;;;;;;;6.35;1.55;;;6.60;99.90;;;;;;5036759;28;20159;-72
2023/03/11 03:27:15;;;;;;;4.72;1.52;;;6.60;99.90;;;;;;5020377;28;20214;-71
2023/03/11 03:29:44;;;;;;;2.93;1.63;;;6.60;99.90;;;;;;5035545;28;20643;-71
2023/03/11 03:32:13;;;;;;;4.50;1.80;;;6.50;99.90;;;;;;5036395;28;21008;-71
2023/03/11 03:34:41;;;;;;;3.65;1.80;;;6.50;99.90;;;;;;5035541;28;20250;-71
2023/03/11 03:37:10;;;;;;;7.43;2.20;;;6.50;99.90;;;;;;5036728;28;20226;-71
2023/03/11 03:39:37;;;;;;;3.80;1.92;;;6.50;99.90;;;;;;5036590;28;20198;-71
2023/03/11 03:42:03;;;;;;;9.17;1.73;;;6.50;99.90;;;;;;5053987;28;20750;-72
2023/03/11 03:44:32;;;;;;;3.25;1.60;;;6.50;99.90;;;;;;5035485;28;20503;-71
2023/03/11 03:46:58;;;;;;;2.80;1.85;;;6.50;99.90;;;;;;5033104;28;20205;-71
2023/03/11 03:49:28;;;;;;;4.03;1.60;;;6.50;99.90;;;;;;5036034;28;20200;-71
2023/03/11 03:51:57;;;;;;;7.85;1.60;;;6.50;99.90;;;;;;5016165;28;20241;-71
2023/03/11 03:54:30;;;;;;;2.42;1.20;;;6.50;99.90;;;;;;5001623;28;20196;-71
2023/03/11 03:56:59;;;;;;;9.00;1.92;;;6.50;99.90;;;;;;5053851;28;20193;-71
2023/03/11 03:59:30;;;;;;;3.38;1.42;;;6.40;99.90;;;;;;5036456;28;20224;-71
2023/03/11 04:02:01;;;;;;;3.35;1.25;;;6.50;99.90;;;;;;5036022;28;20541;-71
2023/03/11 04:04:33;;;;;;;2.10;1.20;;;6.50;99.90;;;;;;5019976;28;20591;-71
2023/03/11 04:06:59;;;;;;;3.90;1.50;;;6.40;99.90;;;;;;5036100;28;20190;-71
2023/03/11 04:09:26;;;;;;;3.83;1.80;;;6.40;99.90;;;;;;5036153;28;20570;-71
2023/03/11 04:11:52;;;;;;;2.42;1.38;;;6.40;99.90;;;;;;5019509;28;20510;-71
2023/03/11 04:14:18;;;;;;;2.05;1.30;;;6.40;99.90;;;;;;5036000;28;20638;-71
2023/03/11 04:16:52;;;;;;;5.15;1.42;;;6.40;99.90;;;;;;5003548;28;20568;-71
2023/03/11 04:19:20;;;;;;;6.33;1.50;;;6.40;99.90;;;;;;5036098;28;20206;-71
2023/03/11 04:21:50;;;;;;;4.40;1.75;;;6.40;99.90;;;;;;5035928;28;20451;-71
2023/03/11 04:24:18;;;;;;;3.10;1.60;;;6.30;99.90;;;;;;5035214;28;20185;-71
2023/03/11 04:26:44;;;;;;;4.20;1.48;;;6.40;99.90;;;;;;5035782;28;20252;-71
2023/03/11 04:29:17;;;;;;;3.40;1.20;;;6.30;99.90;;;;;;5035639;28;20205;-71
2023/03/11 04:31:47;;;;;;;1.70;1.45;;;6.30;99.90;;;;;;5035503;28;20190;-71
2023/03/11 04:34:14;;;;;;;3.60;1.52;;;6.30;99.90;;;;;;5035443;28;20166;-71
2023/03/11 04:36:43;;;;;;;4.90;1.90;;;6.30;99.90;;;;;;5036379;28;20284;-72
2023/03/11 04:39:11;;;;;;;2.83;1.40;;;6.30;99.90;;;;;;5035506;28;20198;-72
2023/03/11 04:41:41;;;;;;;3.30;1.40;;;6.30;99.90;;;;;;5035301;28;20205;-72
2023/03/11 04:44:10;;;;;;;3.15;1.30;;;6.30;99.90;;;;;;5034824;28;20264;-72
2023/03/11 04:46:36;;;;;;;6.40;1.90;;;6.30;99.90;;;;;;4999199;28;20205;-72
2023/03/11 04:49:05;;;;;;;2.33;1.38;;;6.30;99.90;;;;;;5026981;28;20226;-72
2023/03/11 04:51:31;;;;;;;3.60;1.80;;;6.20;99.90;;;;;;5035227;28;20180;-72
2023/03/11 04:54:00;;;;;;;5.63;1.60;;;6.30;99.90;;;;;;5018415;28;20217;-72
2023/03/11 04:56:30;;;;;;;6.30;1.50;;;6.30;99.90;;;;;;5014130;28;20204;-72
2023/03/11 04:59:02;;;;;;;2.95;1.65;;;6.20;99.90;;;;;;5035398;28;20197;-72
2023/03/11 05:01:30;;;;;;;3.35;1.50;;;6.20;99.90;;;;;;5034965;28;20172;-72
2023/03/11 05:03:58;;;;;;;3.53;1.27;;;6.20;99.90;;;;;;5035539;28;20157;-72
2023/03/11 05:06:28;;;;;;;3.90;1.27;;;6.20;99.90;;;;;;5034928;28;20205;-72
2023/03/11 05:08:57;;;;;;;4.43;1.40;;;6.20;99.90;;;;;;5051821;28;20202;-72
2023/03/11 05:11:26;;;;;;;2.95;1.55;;;6.20;99.90;;;;;;5018196;28;20169;-72
2023/03/11 05:13:52;;;;;;;2.90;1.70;;;6.20;99.90;;;;;;5034765;28;20264;-72
2023/03/11 05:16:23;;;;;;;3.17;1.77;;;6.20;99.90;;;;;;5035002;28;20207;-72
2023/03/11 05:18:51;;;;;;;2.42;1.52;;;6.20;99.90;;;;;;5034219;28;20224;-72
2023/03/11 05:21:22;;;;;;;3.50;1.45;;;6.20;99.90;;;;;;5020728;28;20521;-72
2023/03/11 05:23:48;;;;;;;3.50;1.77;;;6.20;99.90;;;;;;5015619;28;20218;-72
2023/03/11 05:26:19;;;;;;;9.73;1.83;;;6.20;99.90;;;;;;5025221;28;20518;-72
2023/03/11 05:28:48;;;;;;;2.03;0.98;;;6.10;99.90;;;;;;5017533;28;20246;-72
2023/03/11 05:31:17;;;;;;;2.67;1.50;;;6.10;99.90;;;;;;5018260;28;20221;-72
2023/03/11 05:33:45;;;;;;;4.63;1.40;;;6.10;99.90;;;;;;5034693;28;20177;-72
2023/03/11 05:36:18;;;;;;;2.03;1.20;;;6.10;99.90;;;;;;5034713;28;20215;-72
2023/03/11 05:38:44;;;;;;;3.80;1.40;;;6.10;99.90;;;;;;5028861;28;20206;-71
2023/03/11 05:41:17;;;;;;;1.60;1.05;;;6.10;99.90;;;;;;5034213;28;20194;-71
2023/03/11 05:43:44;;;;;;;5.32;1.55;;;6.10;99.90;;;;;;5018053;28;20235;-71
2023/03/11 05:46:13;;;;;;;4.35;1.65;;;6.10;99.90;;;;;;5034616;28;20174;-71
2023/03/11 05:48:40;;;;;;;4.90;1.52;;;6.10;99.90;;;;;;5018069;28;20304;-72
2023/03/11 05:51:10;;;;;;;2.67;1.35;;;6.10;99.90;;;;;;5051778;28;20194;-72
2023/03/11 05:53:46;;;;;;;4.22;1.40;;;6.00;99.90;;;;;;5029895;28;20182;-72
2023/03/11 05:56:21;;;;;;;3.35;1.63;;;6.00;99.90;;;;;;5031147;28;20277;-72
2023/03/11 05:58:51;;;;;;;3.60;1.40;;;6.00;99.90;;;;;;5030800;28;20201;-72
2023/03/11 06:01:21;;;;;;;4.32;1.55;;;6.00;99.90;;;;;;4988957;28;20197;-71
2023/03/11 06:03:52;;;;;;;5.53;1.45;;;6.00;99.90;;;;;;5031659;28;20212;-72
2023/03/11 06:06:19;;;;;;;3.30;1.40;;;6.00;99.90;;;;;;5033406;28;20187;-72
2023/03/11 06:08:49;;;;;;;1.98;1.60;;;6.00;99.90;;;;;;5004306;28;20686;-72
2023/03/11 06:11:16;;;;;;;2.60;2.08;;;6.00;99.90;;;;;;5007498;28;20199;-72
2023/03/11 06:13:45;;;;;;;4.55;2.28;;;6.00;99.90;;;;;;5035024;28;20258;-71
2023/03/11 06:16:11;;;;;;;3.28;1.52;;;6.00;99.90;;;;;;5046107;28;20195;-71
2023/03/11 06:18:40;;;;;;;3.33;1.50;;;6.00;99.90;;;;;;5022834;28;20207;-72
2023/03/11 06:21:07;;;;;;;3.00;1.33;;;6.00;99.90;;;;;;5038682;28;20261;-72
2023/03/11 06:23:34;;;;;;;2.20;1.30;;;6.00;99.90;;;;;;5022711;28;20637;-71
2023/03/11 06:26:06;;;;;;;5.35;2.00;;;6.00;99.90;;;;;;5019078;28;20201;-72
2023/03/11 06:28:37;;;;;;;2.83;1.20;;;6.00;99.90;;;;;;5018580;28;20330;-71
2023/03/11 06:31:09;;;;;;;2.28;1.30;;;5.90;99.90;;;;;;5013631;28;20212;-71
2023/03/11 06:33:35;;;;;;;2.92;1.58;;;5.90;99.90;;;;;;5018430;28;20677;-71
2023/03/11 06:36:03;;;;;;;3.85;1.40;;;5.90;99.90;;;;;;5029105;28;20202;-71
2023/03/11 06:38:32;;;;;;;3.17;1.30;;;5.90;99.90;;;;;;5038258;28;20237;-71
2023/03/11 06:41:00;;;;;;;2.92;1.60;;;5.90;99.90;;;;;;5037883;28;20577;-71
2023/03/11 06:43:26;;;;;;;5.93;2.20;;;5.90;99.90;;;;;;5009670;28;20206;-73
2023/03/11 06:45:53;;;;;;;3.92;1.77;;;5.90;99.90;;;;;;5026996;28;20169;-72
2023/03/11 06:48:21;;;;;;;2.83;1.35;;;5.90;99.90;;;;;;5020904;28;20236;-70
2023/03/11 06:51:01;;;;;;;4.75;1.50;;;5.90;99.90;;;;;;5038003;28;20339;-74
2023/03/11 06:53:31;;;;;;;3.42;1.25;;;5.90;99.90;;;;;;5037881;28;20200;-71
2023/03/11 06:56:06;;;;;;;2.20;1.42;;;5.90;99.90;;;;;;5055143;28;20196;-73
2023/03/11 06:58:41;;;;;;;3.60;1.73;;;5.90;99.90;;;;;;5020877;28;20542;-72
2023/03/11 07:01:19;;;;;;;4.57;1.73;;;5.90;99.90;;;;;;5020796;28;20180;-73
2023/03/11 07:03:47;;;;;;;2.13;1.73;;;5.90;99.90;;;;;;5037058;28;20579;-73
2023/03/11 07:06:16;;;;;;;2.75;1.60;;;5.90;99.90;;;;;;5036940;28;20170;-72
2023/03/11 07:08:44;;;;;;;2.47;1.48;;;5.80;99.90;;;;;;5037071;28;20206;-72
2023/03/11 07:11:26;;;;;;;5.13;2.00;;;5.80;99.90;;;;;;5003797;28;20193;-72
2023/03/11 07:13:56;;;;;;;4.72;1.73;;;5.80;99.90;;;;;;5036832;28;20647;-72
2023/03/11 07:16:25;;;;;;;2.60;1.52;;;5.80;99.90;;;;;;5036793;28;20283;-72
2023/03/11 07:19:01;;;;;;;6.03;1.42;;;5.80;99.90;;;;;;5036476;28;20206;-72
2023/03/11 07:24:13;;;;;;;4.32;1.45;;;5.80;99.90;;;;;;5038353;28;20217;-72
2023/03/11 07:26:39;;;;;;;2.50;1.38;;;5.80;99.90;;;;;;5054473;28;20197;-72
2023/03/11 07:29:05;;;;;;;3.70;1.83;;;5.80;99.90;;;;;;5054270;28;20208;-69
2023/03/11 07:31:35;;;;;;;3.20;1.60;;;5.80;99.90;;;;;;5054608;28;20526;-72
2023/03/11 07:34:05;;;;;;;2.10;1.63;;;5.80;99.90;;;;;;5051140;28;20460;-70
2023/03/11 07:36:33;;;;;;;4.75;1.65;;;5.80;99.90;;;;;;5049580;28;20231;-70
2023/03/11 07:39:02;;;;;;;2.20;1.65;;;5.80;99.90;;;;;;5050897;28;20216;-72
2023/03/11 07:41:30;;;;;;;4.35;1.52;;;5.80;99.90;;;;;;5051372;28;20271;-72
2023/03/11 07:43:58;;;;;;;3.38;1.63;;;5.80;99.90;;;;;;5050812;28;20168;-71
2023/03/11 07:46:25;;;;;;;1.70;1.25;;;5.80;99.90;;;;;;5034190;28;20680;-71
2023/03/11 07:48:52;;;;;;;3.20;1.95;;;5.80;99.90;;;;;;5050354;28;20202;-73
2023/03/11 07:51:19;;;;;;;4.18;1.90;;;5.80;99.90;;;;;;5050713;28;20184;-73
2023/03/11 07:53:46;;;;;;;5.05;2.10;;;5.80;99.90;;;;;;5050983;28;20193;-71
2023/03/11 07:56:14;;;;;;;4.28;1.83;;;5.80;99.90;;;;;;5033685;28;20220;-70
2023/03/11 07:58:40;;;;;;;7.32;2.00;;;5.70;99.90;;;;;;5050363;28;20211;-71
2023/03/11 08:01:15;;;;;;;2.88;1.60;;;5.70;99.90;;;;;;5034280;28;20187;-72
2023/03/11 08:03:45;;;;;;;5.50;1.92;;;5.70;99.90;;;;;;5051065;28;20200;-72
2023/03/11 08:06:13;;;;;;;4.45;1.73;;;5.70;99.90;;;;;;5050651;28;20166;-71
2023/03/11 08:08:39;;;;;;;6.47;1.65;;;5.70;99.90;;;;;;5040659;28;20257;-71
2023/03/11 08:11:06;;;;;;;4.18;1.83;;;5.70;99.90;;;;;;5034407;28;20237;-70
2023/03/11 08:13:34;;;;;;;3.10;1.90;;;5.70;99.90;;;;;;5053429;28;20166;-70
2023/03/11 08:16:07;;;;;;;4.43;1.73;;;5.70;99.90;;;;;;5053462;28;20197;-70
2023/03/11 08:18:35;;;;;;;3.03;1.55;;;5.70;99.90;;;;;;5068674;28;20196;-71
2023/03/11 08:21:09;;;;;;;2.65;1.70;;;5.70;99.90;;;;;;5035015;28;20218;-72
2023/03/11 08:23:38;;;;;;;2.60;1.42;;;5.70;99.90;;;;;;5049487;28;20188;-71
2023/03/11 08:26:13;;;;;;;3.05;1.50;;;5.70;99.90;;;;;;5051629;28;20181;-71
2023/03/11 08:28:39;;;;;;;4.75;2.03;;;5.70;99.90;;;;;;5050982;28;20208;-73
2023/03/11 08:31:12;;;;;;;4.05;1.60;;;5.70;99.90;;;;;;5052653;28;20571;-71
2023/03/11 08:33:39;;;;;;;8.45;2.00;;;5.70;99.90;;;;;;5052861;28;20212;-71
2023/03/11 08:36:05;;;;;;;3.90;1.80;;;5.70;99.90;;;;;;5035653;28;20208;-72
2023/03/11 08:38:36;;;;;;;4.38;2.10;;;5.70;99.90;;;;;;5050311;28;20200;-73
2023/03/11 08:41:02;;;;;;;3.17;1.77;;;5.70;99.90;;;;;;5052000;28;20186;-71
2023/03/11 08:43:30;;;;;;;4.88;2.20;;;5.70;99.90;;;;;;5034990;28;20204;-71
2023/03/11 08:46:00;;;;;;;2.35;1.60;;;5.70;99.90;;;;;;5052758;28;20200;-71
2023/03/11 08:48:29;;;;;;;3.63;1.60;;;5.70;99.90;;;;;;5050620;28;20205;-70
2023/03/11 08:50:57;;;;;;;3.25;2.03;;;5.70;99.90;;;;;;5051639;28;20195;-71
2023/03/11 08:53:24;;;;;;;2.80;1.60;;;5.70;99.90;;;;;;5050940;28;20268;-72
2023/03/11 08:55:51;;;;;;;3.58;1.73;;;5.70;99.90;;;;;;5052986;28;20211;-71
2023/03/11 08:58:24;;;;;;;5.03;1.77;;;5.70;99.90;;;;;;5051849;28;20301;-70
2023/03/11 09:00:50;;;;;;;2.72;1.75;;;5.70;99.90;;;;;;5051275;28;20255;-72
2023/03/11 09:03:19;;;;;;;6.63;1.90;;;5.80;99.90;;;;;;5050927;28;20234;-71
2023/03/11 09:05:48;;;;;;;4.30;1.70;;;5.80;99.90;;;;;;5051698;28;20185;-72
2023/03/11 09:08:16;;;;;;;5.30;1.70;;;5.80;99.90;;;;;;5052187;28;20509;-72
2023/03/11 09:10:44;;;;;;;3.20;1.50;;;5.80;99.90;;;;;;5034820;28;20227;-71
2023/03/11 09:13:10;;;;;;;2.60;1.57;;;5.80;99.90;;;;;;5050753;28;20649;-72
2023/03/11 09:15:42;;;;;;;2.78;1.60;;;5.80;99.90;;;;;;5052542;28;20411;-74
2023/03/11 09:18:15;;;;;;;2.20;1.30;;;5.90;99.90;;;;;;5034960;28;20209;-72
2023/03/11 09:20:44;;;;;;;4.65;1.52;;;5.90;99.90;;;;;;5035080;28;20262;-70
2023/03/11 09:23:15;;;;;;;1.80;1.35;;;5.90;99.90;;;;;;5030312;28;20190;-72
2023/03/11 09:25:46;;;;;;;3.25;2.13;;;5.90;99.90;;;;;;5040596;28;20212;-71
2023/03/11 09:28:14;;;;;;;3.25;1.30;;;5.90;99.90;;;;;;5051311;28;20291;-72
2023/03/11 09:30:41;;;;;;;4.55;1.27;;;5.90;99.90;;;;;;5008878;28;20187;-72
2023/03/11 09:33:07;;;;;;;1.85;1.45;;;5.90;99.90;;;;;;5045847;28;20212;-73
2023/03/11 09:35:33;;;;;;;3.15;1.30;;;6.00;99.90;;;;;;5050705;28;20205;-71
2023/03/11 09:38:02;;;;;;;4.60;1.77;;;6.00;99.90;;;;;;5051154;28;20187;-72
2023/03/11 09:40:51;;;;;;;5.30;2.00;;;6.00;99.90;;;;;;5050609;28;20525;-72
2023/03/11 09:43:35;;;;;;;3.65;1.70;;;6.00;99.90;;;;;;5051108;28;20271;-72
2023/03/11 09:46:33;;;;;;;1.60;1.50;;;6.10;99.90;;;;;;5052089;28;20166;-73
2023/03/11 09:49:17;;;;;;;2.20;1.40;;;6.10;99.90;;;;;;5051753;28;20244;-73
2023/03/11 09:52:07;;;;;;;1.80;1.38;;;6.10;99.90;;;;;;5050725;28;20223;-73
2023/03/11 09:54:40;;;;;;;1.88;1.20;;;6.10;99.90;;;;;;5036527;28;20192;-73
2023/03/11 09:57:17;;;;;;;3.33;1.60;;;6.20;99.90;;;;;;5037343;28;20708;-73
2023/03/11 09:59:45;;;;;;;1.17;1.08;;;6.20;99.90;;;;;;5040263;28;20192;-73
2023/03/11 10:02:20;;;;;;;2.58;1.35;;;6.20;99.90;;;;;;5050153;28;20264;-76
2023/03/11 10:04:52;;;;;;;3.05;1.10;;;6.20;99.90;;;;;;5018225;28;20232;-74
2023/03/11 10:07:24;;;;;;;3.10;1.00;;;6.20;99.90;;;;;;5052270;28;20181;-73
2023/03/11 10:09:55;;;;;;;1.75;1.35;;;6.30;99.90;;;;;;5050878;28;20213;-74
2023/03/11 10:12:24;;;;;;;3.50;1.60;;;6.30;99.90;;;;;;5051657;28;20684;-73
2023/03/11 10:15:15;;;;;;;2.40;1.42;;;6.30;99.90;;;;;;5034066;28;20184;-71
2023/03/11 10:18:21;;;;;;;4.20;1.75;;;6.30;99.90;;;;;;5051459;28;20740;-73
2023/03/11 10:20:59;;;;;;;2.23;1.90;;;6.30;99.90;;;;;;5050352;28;20631;-76
2023/03/11 10:24:02;;;;;;;3.80;1.95;;;6.30;99.90;;;;;;5033698;28;20460;-77
2023/03/11 10:26:38;;;;;;;3.10;2.00;;;6.40;99.90;;;;;;5050976;28;20200;-76
2023/03/11 10:29:15;;;;;;;3.58;1.88;;;6.40;99.90;;;;;;5034154;28;20623;-75
2023/03/11 10:32:06;;;;;;;2.55;1.85;;;6.40;99.90;;;;;;5017466;28;20205;-76
2023/03/11 10:34:55;;;;;;;3.88;1.80;;;6.40;99.90;;;;;;5045229;28;20212;-74
2023/03/11 10:37:30;;;;;;;9.35;2.20;;;6.40;99.90;;;;;;5040732;28;20304;-74
2023/03/11 10:40:09;;;;;;;4.07;2.17;;;6.50;99.90;;;;;;5033258;28;20670;-74
2023/03/11 10:42:38;;;;;;;3.72;1.90;;;6.50;99.90;;;;;;5051237;28;20198;-75
2023/03/11 10:45:10;;;;;;;2.63;2.30;;;6.50;99.90;;;;;;5030249;28;20185;-77
2023/03/11 10:47:36;;;;;;;6.03;2.23;;;6.50;99.90;;;;;;5032199;28;20199;-75
2023/03/11 10:50:02;;;;;;;3.77;2.07;;;6.60;99.90;;;;;;5048893;28;20487;-73
2023/03/11 10:52:29;;;;;;;3.57;2.13;;;6.60;99.90;;;;;;5049697;28;20447;-73
2023/03/11 10:55:04;;;;;;;5.30;1.87;;;6.60;99.90;;;;;;5053432;28;20408;-73
2023/03/11 10:57:36;;;;;;;3.80;2.00;;;6.60;99.90;;;;;;5053333;28;20838;-73
2023/03/11 11:00:11;;;;;;;3.30;1.90;;;6.70;99.90;;;;;;5053545;28;20273;-73
2023/03/11 11:02:56;;;;;;;3.00;1.67;;;6.70;99.90;;;;;;5037037;28;20420;-73
2023/03/11 11:05:31;;;;;;;5.05;1.80;;;6.70;99.90;;;;;;5037438;28;20856;-73
2023/03/11 11:08:12;;;;;;;2.53;2.17;;;6.70;99.90;;;;;;5054191;28;20193;-73
2023/03/11 11:10:50;;;;;;;2.57;1.80;;;6.70;99.90;;;;;;5036084;28;20205;-73
2023/03/11 11:13:20;;;;;;;4.23;2.10;;;6.70;99.90;;;;;;5054570;28;20998;-73
2023/03/11 11:15:54;;;;;;;2.92;2.40;;;6.70;99.90;;;;;;5053181;28;20443;-73
2023/03/11 11:18:24;;;;;;;3.00;2.13;;;6.80;99.90;;;;;;5036889;28;20214;-73
2023/03/11 11:21:13;;;;;;;3.63;1.88;;;6.80;99.90;;;;;;5053218;28;20183;-73
2023/03/11 11:23:39;;;;;;;4.23;2.27;;;6.80;99.90;;;;;;5052155;28;20193;-73
2023/03/11 11:26:14;;;;;;;5.70;2.13;;;6.80;99.90;;;;;;5053037;28;20526;-73
2023/03/11 11:28:40;;;;;;;4.30;2.20;;;6.80;99.90;;;;;;5036587;28;20448;-73
2023/03/11 11:31:26;;;;;;;2.37;2.13;;;6.80;99.90;;;;;;5054224;28;20936;-75
2023/03/11 11:33:55;;;;;;;4.28;2.35;;;6.80;99.90;;;;;;5053034;28;20509;-74
2023/03/11 11:36:34;;;;;;;4.37;3.17;;;6.80;99.90;;;;;;5052838;28;20198;-73
2023/03/11 11:39:03;;;;;;;3.78;1.80;;;6.80;99.90;;;;;;5053658;28;20527;-73
2023/03/11 11:41:32;;;;;;;3.35;2.00;;;6.90;99.90;;;;;;5052741;28;20181;-73
2023/03/11 11:44:02;;;;;;;3.83;1.90;;;6.90;99.90;;;;;;5039734;28;20178;-73
2023/03/11 11:46:40;;;;;;;9.47;2.20;;;6.90;99.90;;;;;;5049848;28;20462;-73
2023/03/11 11:49:17;;;;;;;5.70;1.90;;;6.90;99.90;;;;;;5053792;28;20440;-73
2023/03/11 11:52:13;;;;;;;5.83;1.47;;;6.90;99.90;;;;;;5043300;28;20472;-73
2023/03/11 11:54:51;;;;;;;3.07;1.93;;;6.90;99.90;;;;;;5039255;28;20463;-74
2023/03/11 11:57:20;;;;;;;3.73;1.70;;;6.90;99.90;;;;;;5052436;28;20471;-74
2023/03/11 11:59:49;;;;;;;3.72;1.67;;;7.00;99.90;;;;;;5052391;28;20494;-73
2023/03/11 12:02:41;;;;;;;6.30;2.00;;;7.00;99.90;;;;;;5053542;28;20162;-73
2023/03/11 12:05:22;;;;;;;3.00;1.70;;;7.00;99.90;;;;;;5052303;28;20169;-73
2023/03/11 12:08:09;;;;;;;2.97;1.47;;;7.10;99.30;;;;;;5052305;28;20292;-73
2023/03/11 12:10:53;;;;;;;3.87;1.87;;;7.10;98.90;;;;;;5052408;28;20400;-74
2023/03/11 12:13:43;;;;;;;4.00;1.87;;;7.10;98.40;;;;;;5035017;28;20555;-73
2023/03/11 12:16:44;;;;;;;5.60;2.27;;;7.10;98.40;;;;;;5052502;28;20543;-73
2023/03/11 12:19:10;;;;;;;5.80;2.70;;;7.10;98.60;;;;;;5051951;28;20447;-73
2023/03/11 12:21:45;;;;;;;4.37;1.57;;;7.10;98.90;;;;;;5052046;28;20431;-73
2023/03/11 12:24:56;;;;;;;3.67;1.83;;;7.10;99.10;;;;;;5031518;28;20968;-73
2023/03/11 12:27:23;;;;;;;2.83;1.65;;;7.10;99.30;;;;;;5043549;28;20447;-73
2023/03/11 12:29:56;;;;;;;5.60;1.67;;;7.20;99.30;;;;;;5052027;28;20209;-73
2023/03/11 12:33:00;;;;;;;6.60;2.03;;;7.20;99.40;;;;;;5051555;28;20754;-73
2023/03/11 12:35:33;;;;;;;2.20;1.70;;;7.20;99.40;;;;;;5038949;28;20414;-72
2023/03/11 12:38:25;;;;;;;2.67;1.57;;;7.20;99.40;;;;;;5048735;28;20862;-73
2023/03/11 12:41:03;;;;;;;4.43;2.10;;;7.20;99.10;;;;;;5037275;28;20930;-72
2023/03/11 12:43:34;;;;;;;1.53;1.40;;;7.20;98.30;;;;;;5048895;28;21005;-72
2023/03/11 12:46:07;;;;;;;3.20;1.40;;;7.20;98.20;;;;;;5043481;28;20515;-72
2023/03/11 12:48:43;;;;;;;4.50;2.20;;;7.20;98.00;;;;;;5030887;28;20439;-72
2023/03/11 12:51:36;;;;;;;2.30;1.53;;;7.20;97.70;;;;;;5048972;28;21021;-72
2023/03/11 12:54:30;;;;;;;4.57;2.40;;;7.20;97.30;;;;;;5048485;28;20538;-72
2023/03/11 12:57:03;;;;;;;3.55;1.50;;;7.20;97.40;;;;;;5045946;28;20570;-72
2023/03/11 13:00:06;;;;;;;2.80;1.40;;;7.20;97.50;;;;;;5038692;28;20211;-73
2023/03/11 13:02:54;;;;;;;4.63;1.50;;;7.20;97.40;;;;;;4992000;28;20437;-72
2023/03/11 13:05:29;;;;;;;2.80;1.83;;;7.30;96.90;;;;;;5051490;28;20489;-72
2023/03/11 13:08:08;;;;;;;4.63;1.40;;;7.30;97.00;;;;;;5051029;28;20423;-72
2023/03/11 13:10:43;;;;;;;2.20;1.63;;;7.30;97.20;;;;;;5041100;28;20441;-72
2023/03/11 13:13:24;;;;;;;2.53;1.60;;;7.30;97.20;;;;;;5031872;28;20427;-72
2023/03/11 13:15:51;;;;;;;3.37;1.50;;;7.30;97.30;;;;;;5051023;28;20900;-72
2023/03/11 13:18:26;;;;;;;6.50;1.63;;;7.30;97.30;;;;;;5050952;28;20439;-72
2023/03/11 13:21:02;;;;;;;2.38;1.60;;;7.30;97.00;;;;;;5050810;28;20447;-72
2023/03/11 13:23:41;;;;;;;4.23;1.17;;;7.30;96.90;;;;;;5051165;28;20213;-72
2023/03/11 13:26:30;;;;;;;3.47;1.80;;;7.30;96.90;;;;;;5050945;28;20510;-72